Terminal Aerodrome Forecast
Issued by NWS

Home | Current Version | Previous Version | Text Only | Print | Product List | Glossary On
Versions: 1 2 3 4 5 6 7 8 9 10 11 12 13 14 15 16 17 18 19 20 21 22 23 24
000
FTUS46 KOTX 041120
TAFCOE
TAF
KCOE 041120Z 0412/0512 07004KT P6SM FEW100 FEW200
     FM041400 03011KT P6SM FEW060 SCT200
     FM050200 03010KT P6SM VCSH SCT050 BKN080 OVC150
     FM050900 03011KT P6SM -RA SCT030 BKN060 OVC100
      AMD LTD TO CLD AND VIS=

USA.gov is the U.S. government's official web portal to all federal, state and local government web resources and services.